Flight Track Log - Related Links

Times and Time Zones

All times are in EDT time to prevent confusion due to time zone crossing. See the EJA396 flight status page for this flight to view local times or setup timezone preferences in your user account.

Time Position Orientation Groundspeed Altitude Reporting Facility
EDT Latitude Longitude Course Direction KTS MPH feet Rate Location/Type
Wed 12:03:15 PM 41.3339 -71.8319 294° West 177 204 1,300  Level Boston Center
Wed 12:04:22 PM 41.2906 -71.9153 235° Southwest 278 320 6,400 4,217 Climbing Boston Center
Wed 12:05:33 PM 41.3511 -71.9644 329° Northwest 228 262 11,000 3,160 Climbing Boston Center
Wed 12:06:33 PM 41.4303 -71.9778 353° North 268 308 13,300 2,450 Climbing Boston Center
Wed 12:07:00 PM 41.9343 -71.8396 17° North  Level FlightAware Approximate
Wed 12:07:33 PM 41.5244 -72.0492 330° Northwest 325 374 15,900  Level Boston Center
Wed 12:08:00 PM 41.9836 -71.9507 294° West  Level FlightAware Approximate
Wed 12:08:33 PM 41.5933 -72.1292 319° Northwest 367 422 18,300  Level Boston Center
Wed 12:09:33 PM 41.6811 -72.2317 319° Northwest 378 435 20,800 2,150 Climbing Boston Center
Wed 12:10:33 PM 41.7625 -72.3258 319° Northwest 383 441 22,600 1,650 Climbing Boston Center
Wed 12:11:33 PM 41.8481 -72.4261 319° Northwest 396 456 24,100 1,350 Climbing Boston Center
Wed 12:12:33 PM 41.9169 -72.5097 318° Northwest 407 468 25,300 1,500 Climbing Boston Center
Wed 12:13:33 PM 42.0042 -72.6497 310° West 407 468 27,100 1,650 Climbing Boston Center
Wed 12:14:33 PM 42.0267 -72.7950 282° West 385 443 28,600 1,450 Climbing Boston Center
Wed 12:15:33 PM 42.0492 -72.9461 281° West 395 455 30,000 1,200 Climbing Boston Center
Wed 12:16:33 PM 42.0756 -73.0944 284° West 400 460 31,000 1,000 Climbing Boston Center
Wed 12:17:33 PM 42.0975 -73.2486 281° West 412 474 32,000 1,500 Climbing Boston Center
Wed 12:18:33 PM 42.1192 -73.3944 281° West 412 474 34,000 1,800 Climbing Boston Center
Wed 12:19:33 PM 42.1408 -73.5347 282° West 402 463 35,600 1,300 Climbing Boston Center
Wed 12:20:33 PM 42.1644 -73.6781 283° West 397 457 36,600 900 Climbing Boston Center
Wed 12:21:33 PM 42.1856 -73.8242 281° West 392 451 37,400 650 Climbing Boston Center
Wed 12:22:33 PM 42.2067 -73.9706 281° West 392 451 37,900 450 Climbing Boston Center
Wed 12:23:33 PM 42.2278 -74.1000 282° West 392 451 38,300 450 Climbing Boston Center
Wed 12:24:33 PM 42.2506 -74.2492 282° West 392 451 38,800 450 Climbing Boston Center
Wed 12:25:33 PM 42.2711 -74.3958 281° West 397 457 39,200 400 Climbing Boston Center
Wed 12:26:33 PM 42.2911 -74.5592 279° West 397 457 39,600 300 Climbing Boston Center
Wed 12:27:33 PM 42.3131 -74.7114 281° West 402 463 39,800 200 Climbing Boston Center
Wed 12:28:33 PM 42.3350 -74.8611 281° West 407 468 40,000 100 Climbing Boston Center
Wed 12:29:33 PM 42.3544 -75.0164 280° West 413 475 40,000  Level Boston Center
Wed 12:30:33 PM 42.3781 -75.1692 282° West 413 475 40,000 -50 Level Boston Center
Wed 12:31:33 PM 42.3992 -75.3219 281° West 413 475 39,900  Descending Boston Center
Wed 12:32:33 PM 42.4203 -75.4750 281° West 413 475 40,000 45 Climbing Boston Center
Wed 12:33:45 PM 42.4411 -75.6306 280° West 413 475 40,000  Level Boston Center
Wed 12:34:45 PM 42.4650 -75.8122 280° West 413 475 40,000  Level Boston Center
Wed 12:35:45 PM 42.4853 -75.9625 280° West 413 475 40,000  Level Boston Center
Wed 12:38:08 PM 42.5317 -76.3225 280° West 401 461 40,000  Level Cleveland Center
Wed 12:39:08 PM 42.5494 -76.4706 279° West 408 470 40,000  Level Cleveland Center
Wed 12:40:08 PM 42.5692 -76.6189 280° West 408 470 40,000  Level Cleveland Center
Wed 12:41:08 PM 42.5869 -76.7700 279° West 408 470 40,000  Level Cleveland Center
Wed 12:42:08 PM 42.6064 -76.9186 280° West 408 470 40,000  Level Cleveland Center
Wed 12:43:08 PM 42.6256 -77.0697 280° West 408 470 40,000  Level Cleveland Center
Wed 12:44:08 PM 42.6425 -77.2214 279° West 408 470 40,000  Level Cleveland Center
Wed 12:45:08 PM 42.6617 -77.3756 280° West 408 470 40,000  Level Cleveland Center
Wed 12:46:08 PM 42.6761 -77.5303 277° West 408 470 40,000  Level Cleveland Center
Wed 12:47:08 PM 42.6919 -77.6539 280° West 419 482 40,000  Level Cleveland Center
Wed 12:48:08 PM 42.7128 -77.8222 280° West 419 482 40,000  Level Cleveland Center
Wed 12:49:08 PM 42.7308 -77.9769 279° West 419 482 40,000  Level Cleveland Center
Wed 12:50:08 PM 42.7467 -78.1292 278° West 419 482 40,000  Level Cleveland Center
Wed 12:51:08 PM 42.7644 -78.2839 279° West 419 482 40,000  Level Cleveland Center
Wed 12:52:08 PM 42.7800 -78.4361 278° West 419 482 40,000  Level Cleveland Center
Wed 12:53:08 PM 42.7972 -78.5883 279° West 414 476 40,000  Level Cleveland Center
Wed 12:54:08 PM 42.8125 -78.7436 278° West 414 476 40,000  Level Cleveland Center
Wed 12:55:08 PM 42.8294 -78.8989 279° West 414 476 40,000  Level Cleveland Center
Wed 12:56:08 PM 42.8439 -79.0514 277° West 414 476 40,000  Level Cleveland Center
Wed 12:57:08 PM 42.8606 -79.2067 278° West 414 476 40,000  Level Cleveland Center
Wed 12:58:08 PM 42.8789 -79.3622 279° West 414 476 40,000  Level Cleveland Center
Wed 12:59:08 PM 42.8931 -79.5150 277° West 414 476 40,000  Level Cleveland Center
Wed 12:59:54 PM 42.9000 -79.6333 275° West 410 472 40,000  Level Toronto Center
Wed 01:00:54 PM 42.9167 -79.8000 278° West 410 472 40,000  Level Toronto Center
Wed 01:01:54 PM 42.9167 -79.9333 270° West 410 472 40,000  Level Toronto Center
Wed 01:02:54 PM 42.9333 -80.0833 279° West 410 472 40,000  Level Toronto Center
Wed 01:03:54 PM 42.9500 -80.2500 278° West 410 472 40,000  Level Toronto Center
Wed 01:04:54 PM 42.9667 -80.4000 279° West 410 472 40,000  Level Toronto Center
Wed 01:05:54 PM 42.9833 -80.5667 278° West 410 472 40,000  Level Toronto Center
Wed 01:06:54 PM 43.0000 -80.7000 280° West 410 472 40,000  Level Toronto Center
Wed 01:07:54 PM 43.0000 -80.8667 270° West 410 472 40,000  Level Toronto Center
Wed 01:08:54 PM 43.0167 -81.0167 279° West 410 472 40,000  Level Toronto Center
Wed 01:09:54 PM 43.0167 -81.1833 270° West 410 472 40,000  Level Toronto Center
Wed 01:10:54 PM 43.0167 -81.3500 270° West 410 472 40,000  Level Toronto Center
Wed 01:11:54 PM 43.0167 -81.5000 270° West 410 472 40,000  Level Toronto Center
Wed 01:12:54 PM 43.0167 -81.6667 270° West 420 483 40,000  Level Toronto Center
Wed 01:13:54 PM 43.0167 -81.8167 270° West 410 472 40,000  Level Toronto Center
Wed 01:14:54 PM 43.0000 -81.9833 262° West 410 472 40,000  Level Toronto Center
Wed 01:15:54 PM 43.0000 -82.1333 270° West 410 472 40,000  Level Toronto Center
Wed 01:16:54 PM 43.0000 -82.2833 270° West 410 472 40,000  Level Toronto Center
Wed 01:17:54 PM 43.0000 -82.4333 270° West 410 472 40,000  Level Toronto Center
Wed 01:18:54 PM 43.0000 -82.6000 270° West 410 472 40,000  Level Toronto Center
Wed 01:19:56 PM 42.9983 -82.7492 269° West 413 475 40,000  Level Cleveland Center
Wed 01:20:56 PM 42.9767 -82.9017 259° West 418 481 40,000  Level Cleveland Center
Wed 01:21:56 PM 42.9547 -83.0539 259° West 418 481 40,000  Level Cleveland Center
Wed 01:22:56 PM 42.9328 -83.2033 259° West 418 481 40,000  Level Cleveland Center
Wed 01:23:56 PM 42.9083 -83.3583 258° West 413 475 40,000 -250 Level Cleveland Center
Wed 01:24:56 PM 42.8878 -83.5078 259° West 413 475 39,500 -900 Descending Cleveland Center
Wed 01:25:56 PM 42.8631 -83.6622 258° West 413 475 38,200 -1,400 Descending Cleveland Center
Wed 01:26:56 PM 42.8381 -83.8167 258° West 413 475 36,700 -1,500 Descending Cleveland Center
Wed 01:27:56 PM 42.8147 -83.9714 258° West 413 475 35,200 -1,200 Descending Cleveland Center
Wed 01:28:56 PM 42.7914 -84.1256 258° West 413 475 34,300 -600 Descending Cleveland Center
Wed 01:29:56 PM 42.7678 -84.2800 258° West 418 481 34,000 -150 Descending Cleveland Center
Wed 01:30:56 PM 42.7411 -84.4539 258° West 418 481 34,000  Level Cleveland Center
Wed 01:32:10 PM 42.7125 -84.6306 258° West 425 489 34,000  Level Chicago Center
Wed 01:33:12 PM 42.6881 -84.7867 258° West 424 488 34,000  Level Chicago Center
Wed 01:34:14 PM 42.6622 -84.9419 257° West 422 486 34,000 -48 Level Chicago Center
Wed 01:35:16 PM 42.6308 -85.1306 257° West 426 490 33,900 -484 Descending Chicago Center
Wed 01:36:18 PM 42.6058 -85.2836 258° West 419 482 33,000 -726 Descending Chicago Center
Wed 01:37:20 PM 42.5797 -85.4386 257° West 418 481 32,400 -484 Descending Chicago Center
Wed 01:38:22 PM 42.5864 -85.5994 273° West 429 494 32,000 -194 Descending Chicago Center
Wed 01:39:24 PM 42.6053 -85.7589 279° West 426 490 32,000 -145 Level Chicago Center
Wed 01:40:26 PM 42.6250 -85.9192 280° West 429 494 31,700 -677 Descending Chicago Center
Wed 01:41:28 PM 42.6431 -86.0769 279° West 422 486 30,600 -1,296 Descending Chicago Center
Wed 01:42:31 PM 42.6658 -86.2683 279° West 424 488 29,000 -1,488 Descending Chicago Center
Wed 01:43:33 PM 42.6850 -86.4283 279° West 427 491 27,500 -1,984 Descending Chicago Center
Wed 01:44:35 PM 42.7011 -86.5850 278° West 419 482 24,900 -2,903 Descending Chicago Center
Wed 01:45:37 PM 42.7169 -86.7256 279° West 380 437 21,500 -3,339 Descending Chicago Center
Wed 01:46:39 PM 42.7322 -86.8650 279° West 374 430 18,000 -3,097 Descending Chicago Center
Wed 01:47:41 PM 42.7464 -86.9925 279° West 345 397 15,100 -2,758 Descending Chicago Center
Wed 01:48:43 PM 42.7597 -87.1097 279° West 319 367 12,300 -2,661 Descending Chicago Center
Wed 01:49:45 PM 42.7600 -87.2350 270° West 289 333 9,600 -2,256 Descending Chicago Center
Wed 01:50:48 PM 42.7286 -87.3269 245° Southwest 272 313 7,600 -1,935 Descending Chicago Center
Wed 01:51:49 PM 42.6881 -87.4094 236° Southwest 271 312 5,600 -1,548 Descending Chicago Center
Wed 01:52:52 PM 42.6400 -87.4939 232° Southwest 277 319 4,400 -768 Descending Chicago Center
Wed 01:53:54 PM 42.5861 -87.5850 231° Southwest 268 308 4,000 -194 Descending Chicago Center
Wed 01:54:56 PM 42.5367 -87.6700 232° Southwest 281 323 4,000 -387 Level Chicago Center
Wed 01:55:58 PM 42.4994 -87.7369 233° Southwest 273 314 3,200 -774 Descending Chicago Center
Wed 01:59:00 PM 42.4167 -87.8667 206° Southwest  Level FlightAware Approximate

Login

Don't have an account? Register now (free) for customized features, flight alerts, and more!